createdAt,value
2018-09-11T00:00:50.584Z,99.70
2018-09-11T00:03:23.014Z,99.90
2018-09-11T00:05:55.483Z,99.90
2018-09-11T00:08:29.247Z,99.90
2018-09-11T00:11:01.722Z,99.90
2018-09-11T00:13:34.285Z,99.90
2018-09-11T00:16:06.747Z,99.90
2018-09-11T00:18:39.353Z,99.90
2018-09-11T00:21:11.730Z,99.90
2018-09-11T00:23:44.146Z,99.90
2018-09-11T00:26:17.001Z,99.90
2018-09-11T00:32:04.789Z,99.90
2018-09-11T00:37:51.389Z,99.90
2018-09-11T00:40:24.690Z,99.90
2018-09-11T00:42:57.740Z,99.90
2018-09-11T00:45:30.640Z,99.90
2018-09-11T00:48:03.807Z,99.90
2018-09-11T00:50:36.814Z,99.90
2018-09-11T00:53:09.834Z,99.90
2018-09-11T00:55:42.916Z,99.90
2018-09-11T00:58:16.087Z,99.90
2018-09-11T01:00:50.312Z,99.90
2018-09-11T01:03:24.039Z,99.90
2018-09-11T01:05:57.372Z,99.90
2018-09-11T01:08:30.501Z,99.90
2018-09-11T01:11:03.738Z,99.90
2018-09-11T01:13:36.972Z,99.90
2018-09-11T01:16:11.302Z,99.90
2018-09-11T01:18:44.461Z,99.90
2018-09-11T01:21:17.514Z,99.90
2018-09-11T01:23:51.496Z,99.90
2018-09-11T01:26:24.733Z,99.90
2018-09-11T01:28:57.963Z,99.90
2018-09-11T01:31:31.975Z,99.90
2018-09-11T01:34:05.433Z,99.90
2018-09-11T01:36:39.065Z,99.90
2018-09-11T01:39:15.177Z,99.90
2018-09-11T01:41:48.046Z,99.90
2018-09-11T01:44:21.265Z,99.90
2018-09-11T01:46:54.363Z,99.90
2018-09-11T01:49:27.395Z,99.90
2018-09-11T01:52:00.593Z,99.90
2018-09-11T01:54:34.995Z,99.90
2018-09-11T01:57:07.905Z,99.90
2018-09-11T01:59:41.017Z,99.90
2018-09-11T02:02:14.305Z,99.90
2018-09-11T02:04:47.529Z,99.90
2018-09-11T02:07:20.600Z,99.90
2018-09-11T02:09:53.714Z,99.90
2018-09-11T02:12:26.685Z,99.90
2018-09-11T02:14:59.949Z,99.90
2018-09-11T02:17:33.253Z,99.90
2018-09-11T02:20:07.145Z,99.90
2018-09-11T02:22:40.140Z,99.90
2018-09-11T02:25:13.309Z,99.90
2018-09-11T02:27:46.547Z,99.90
2018-09-11T02:30:19.567Z,99.90
2018-09-11T02:32:52.586Z,99.90
2018-09-11T02:35:25.711Z,99.90
2018-09-11T02:37:58.757Z,99.90
2018-09-11T02:40:31.864Z,99.90
2018-09-11T02:43:05.349Z,99.90
2018-09-11T02:45:39.266Z,99.90
2018-09-11T02:48:12.755Z,99.90
2018-09-11T02:50:46.418Z,99.90
2018-09-11T02:53:19.718Z,99.90
2018-09-11T02:55:53.299Z,99.90
2018-09-11T02:58:26.900Z,99.90
2018-09-11T03:01:00.187Z,99.90
2018-09-11T03:03:33.651Z,99.90
2018-09-11T03:06:07.804Z,99.90
2018-09-11T03:08:40.790Z,99.90
2018-09-11T03:11:14.067Z,99.90
2018-09-11T03:13:47.255Z,99.90
2018-09-11T03:16:20.680Z,99.90
2018-09-11T03:18:53.705Z,99.90
2018-09-11T03:21:27.143Z,99.90
2018-09-11T03:24:00.197Z,99.90
2018-09-11T03:26:34.692Z,99.90
2018-09-11T03:29:08.649Z,99.90
2018-09-11T03:31:42.744Z,99.90
2018-09-11T03:34:16.345Z,99.90
2018-09-11T03:36:50.054Z,99.90
2018-09-11T03:39:23.654Z,99.90
2018-09-11T03:41:56.774Z,99.90
2018-09-11T03:44:29.996Z,99.90
2018-09-11T03:47:03.034Z,99.90
2018-09-11T03:49:36.330Z,99.90
2018-09-11T03:52:10.438Z,99.90
2018-09-11T03:54:43.748Z,99.90
2018-09-11T03:57:16.770Z,99.90
2018-09-11T03:59:49.865Z,99.90
2018-09-11T04:02:22.886Z,99.90
2018-09-11T04:07:32.779Z,99.90
2018-09-11T04:10:05.950Z,99.90
2018-09-11T04:12:39.064Z,99.90
2018-09-11T04:15:12.270Z,99.90
2018-09-11T04:17:45.314Z,99.90
2018-09-11T04:20:18.452Z,99.90
2018-09-11T04:22:51.807Z,99.90
2018-09-11T04:25:24.792Z,99.90
2018-09-11T04:27:58.249Z,99.90
2018-09-11T04:30:32.209Z,99.90
2018-09-11T04:33:05.583Z,99.90
2018-09-11T04:35:38.775Z,99.90
2018-09-11T04:38:11.987Z,99.90
2018-09-11T04:40:45.049Z,99.90
2018-09-11T04:43:18.059Z,99.90
2018-09-11T04:45:51.187Z,99.90
2018-09-11T04:48:25.025Z,99.90
2018-09-11T04:50:58.650Z,99.90
2018-09-11T04:53:34.364Z,99.90
2018-09-11T04:56:07.775Z,99.90
2018-09-11T04:58:40.931Z,99.90
2018-09-11T05:01:14.092Z,99.90
2018-09-11T05:03:47.189Z,99.90
2018-09-11T05:06:20.641Z,99.90
2018-09-11T05:08:54.314Z,99.90
2018-09-11T05:11:27.784Z,99.90
2018-09-11T05:14:00.877Z,99.90
2018-09-11T05:16:34.082Z,99.90
2018-09-11T05:19:07.135Z,99.90
2018-09-11T05:21:40.405Z,99.90
2018-09-11T05:24:13.536Z,99.90
2018-09-11T05:26:46.476Z,99.90
2018-09-11T05:29:19.601Z,99.90
2018-09-11T05:31:52.842Z,99.90
2018-09-11T05:34:26.002Z,99.90
2018-09-11T05:36:59.090Z,99.90
2018-09-11T05:39:32.203Z,99.90
2018-09-11T05:42:05.207Z,99.90
2018-09-11T05:44:38.372Z,99.90
2018-09-11T05:47:11.365Z,99.90
2018-09-11T05:49:45.716Z,99.90
2018-09-11T05:52:18.835Z,99.90
2018-09-11T05:54:52.206Z,99.90
2018-09-11T05:57:25.170Z,99.90
2018-09-11T05:59:58.304Z,99.90
2018-09-11T06:02:31.625Z,99.90
2018-09-11T06:05:04.618Z,99.90
2018-09-11T06:07:37.670Z,99.90
2018-09-11T06:10:10.904Z,99.90
2018-09-11T06:12:43.946Z,99.90
2018-09-11T06:15:17.104Z,99.90
2018-09-11T06:17:50.401Z,99.90
2018-09-11T06:20:23.514Z,99.90
2018-09-11T06:22:56.717Z,99.90
2018-09-11T06:25:29.691Z,99.90
2018-09-11T06:28:03.016Z,99.90
2018-09-11T06:30:36.153Z,99.90
2018-09-11T06:33:08.442Z,99.90
2018-09-11T06:35:41.485Z,99.90
2018-09-11T06:38:14.690Z,99.90
2018-09-11T06:40:47.862Z,99.90
2018-09-11T06:43:21.377Z,99.90
2018-09-11T06:45:54.815Z,99.90
2018-09-11T06:48:27.922Z,99.90
2018-09-11T06:51:01.114Z,99.90
2018-09-11T06:53:34.369Z,99.90
2018-09-11T06:56:07.506Z,99.90
2018-09-11T06:58:40.587Z,99.90
2018-09-11T07:01:13.682Z,99.90
2018-09-11T07:03:47.550Z,99.90
2018-09-11T07:06:20.553Z,99.90
2018-09-11T07:08:53.921Z,99.90
2018-09-11T07:11:26.950Z,99.90
2018-09-11T07:14:00.437Z,99.90
2018-09-11T07:16:34.361Z,99.90
2018-09-11T07:19:08.372Z,99.90
2018-09-11T07:21:41.570Z,99.90
2018-09-11T07:24:14.783Z,99.90
2018-09-11T07:26:48.141Z,99.90
2018-09-11T07:29:21.510Z,99.90
2018-09-11T07:31:54.619Z,99.90
2018-09-11T07:34:27.600Z,99.90
2018-09-11T07:37:00.689Z,99.90
2018-09-11T07:39:33.771Z,99.90
2018-09-11T07:42:06.805Z,99.90
2018-09-11T07:44:40.059Z,99.90
2018-09-11T07:47:13.072Z,99.90
2018-09-11T07:49:46.238Z,99.90
2018-09-11T07:52:19.427Z,99.90
2018-09-11T07:54:52.587Z,99.90
2018-09-11T07:57:25.672Z,99.90
2018-09-11T07:59:58.946Z,99.90
2018-09-11T08:02:31.889Z,99.90
2018-09-11T08:05:05.356Z,99.90
2018-09-11T08:07:38.427Z,99.90
2018-09-11T08:10:11.663Z,99.90
2018-09-11T08:12:44.616Z,99.90
2018-09-11T08:15:17.838Z,99.90
2018-09-11T08:17:50.955Z,99.90
2018-09-11T08:20:24.061Z,99.90
2018-09-11T08:22:57.288Z,99.90
2018-09-11T08:25:30.469Z,99.90
2018-09-11T08:28:03.558Z,99.90
2018-09-11T08:30:36.773Z,99.90
2018-09-11T08:33:10.007Z,99.90
2018-09-11T08:35:43.000Z,99.90
2018-09-11T08:38:16.303Z,99.90
2018-09-11T08:40:49.328Z,99.90
2018-09-11T08:43:22.533Z,99.90
2018-09-11T08:45:55.695Z,99.90
2018-09-11T08:48:29.059Z,99.90
2018-09-11T08:51:02.134Z,99.90
2018-09-11T08:53:35.234Z,99.90
2018-09-11T08:56:20.593Z,99.90
2018-09-11T08:59:03.230Z,99.90
2018-09-11T09:01:44.318Z,99.90
2018-09-11T09:04:23.285Z,99.90
2018-09-11T09:06:59.739Z,99.90
2018-09-11T09:09:33.078Z,99.90
2018-09-11T09:12:06.795Z,99.90
2018-09-11T09:14:39.974Z,99.90
2018-09-11T09:17:14.715Z,99.90
2018-09-11T09:19:47.888Z,99.90
2018-09-11T09:22:21.201Z,99.90
2018-09-11T09:24:55.106Z,99.90
2018-09-11T09:27:28.409Z,99.90
2018-09-11T09:30:01.947Z,99.90
2018-09-11T09:32:35.130Z,99.90
2018-09-11T09:35:08.141Z,99.90
2018-09-11T09:37:41.518Z,99.90
2018-09-11T09:40:21.554Z,99.90
2018-09-11T09:42:54.608Z,99.90
2018-09-11T09:45:27.547Z,99.90
2018-09-11T09:48:00.615Z,99.90
2018-09-11T09:50:33.543Z,99.90
2018-09-11T09:53:06.633Z,99.90
2018-09-11T09:55:39.586Z,99.90
2018-09-11T09:58:12.896Z,99.90
2018-09-11T10:00:50.415Z,99.90
2018-09-11T10:03:23.803Z,99.90
2018-09-11T10:05:57.731Z,99.90
2018-09-11T10:08:30.710Z,99.90
2018-09-11T10:11:03.574Z,99.90
2018-09-11T10:13:36.718Z,99.90
2018-09-11T10:16:09.785Z,99.90
2018-09-11T10:18:42.714Z,99.90
2018-09-11T10:21:15.771Z,99.90
2018-09-11T10:23:48.752Z,99.90
2018-09-11T10:26:21.783Z,99.90
2018-09-11T10:28:54.994Z,99.90
2018-09-11T10:31:27.917Z,99.90
2018-09-11T10:34:01.025Z,99.90
2018-09-11T10:36:33.778Z,99.90
2018-09-11T10:39:06.970Z,99.90
2018-09-11T10:41:39.813Z,99.90
2018-09-11T10:44:12.813Z,99.90
2018-09-11T10:46:45.746Z,99.90
2018-09-11T10:49:18.717Z,99.90
2018-09-11T10:51:52.130Z,99.90
2018-09-11T10:54:25.040Z,99.90
2018-09-11T10:56:58.544Z,99.90
2018-09-11T10:59:32.927Z,99.90
2018-09-11T11:02:05.963Z,99.90
2018-09-11T11:04:39.653Z,99.90
2018-09-11T11:07:13.089Z,99.90
2018-09-11T11:09:46.568Z,99.90
2018-09-11T11:12:19.978Z,99.90
2018-09-11T11:14:52.938Z,99.90
2018-09-11T11:17:27.223Z,99.90
2018-09-11T11:20:00.426Z,99.90
2018-09-11T11:22:33.823Z,99.90
2018-09-11T11:25:07.618Z,99.90
2018-09-11T11:27:40.916Z,99.90
2018-09-11T11:30:14.114Z,99.90
2018-09-11T11:33:00.116Z,99.90
2018-09-11T11:35:32.982Z,99.90
2018-09-11T11:38:19.816Z,99.90
2018-09-11T11:41:04.458Z,99.90
2018-09-11T11:43:53.086Z,99.90
2018-09-11T11:46:37.008Z,99.90
2018-09-11T11:49:22.859Z,99.90
2018-09-11T11:52:08.241Z,99.90
2018-09-11T11:54:53.779Z,99.90
2018-09-11T11:57:38.646Z,99.90
2018-09-11T12:00:13.085Z,99.90
2018-09-11T12:02:46.694Z,99.90
2018-09-11T12:05:20.393Z,99.90
2018-09-11T12:07:53.753Z,99.90
2018-09-11T12:10:27.629Z,99.90
2018-09-11T12:13:01.794Z,99.90
2018-09-11T12:15:35.108Z,99.90
2018-09-11T12:18:08.434Z,99.90
2018-09-11T12:20:41.532Z,99.90
2018-09-11T12:23:14.782Z,99.90
2018-09-11T12:25:48.537Z,99.90
2018-09-11T12:28:21.982Z,99.90
2018-09-11T12:30:55.300Z,99.90
2018-09-11T12:33:28.395Z,99.90
2018-09-11T12:36:01.733Z,99.90
2018-09-11T12:38:34.614Z,99.90
2018-09-11T12:41:07.704Z,99.90
2018-09-11T12:43:49.124Z,99.90
2018-09-11T12:46:23.077Z,99.90
2018-09-11T12:48:56.139Z,99.90
2018-09-11T12:51:29.202Z,99.90
2018-09-11T12:54:02.361Z,99.90
2018-09-11T12:56:35.387Z,99.90
2018-09-11T12:59:08.371Z,99.90
2018-09-11T13:01:44.110Z,99.90
2018-09-11T13:04:17.394Z,99.90
2018-09-11T13:06:52.119Z,99.90
2018-09-11T13:09:25.918Z,99.90
2018-09-11T13:11:59.330Z,99.90
2018-09-11T13:14:32.559Z,99.90
2018-09-11T13:17:07.709Z,99.90
2018-09-11T13:19:40.778Z,99.90
2018-09-11T13:22:14.227Z,99.90
2018-09-11T13:24:47.436Z,99.90
2018-09-11T13:27:20.745Z,99.90
2018-09-11T13:29:54.109Z,99.90
2018-09-11T13:32:27.630Z,99.90
2018-09-11T13:35:01.230Z,99.90
2018-09-11T13:37:34.806Z,99.90
2018-09-11T13:40:08.520Z,99.90
2018-09-11T13:42:44.934Z,99.90
2018-09-11T13:45:18.241Z,99.90
2018-09-11T13:47:51.551Z,99.90
2018-09-11T13:50:25.400Z,99.90
2018-09-11T13:53:04.524Z,99.90
2018-09-11T13:55:38.487Z,99.90
2018-09-11T13:58:11.913Z,99.90
2018-09-11T14:00:45.537Z,99.90
2018-09-11T14:03:18.973Z,99.90
2018-09-11T14:05:52.498Z,99.90
2018-09-11T14:08:25.808Z,99.90
2018-09-11T14:10:59.190Z,99.90
2018-09-11T14:13:42.930Z,99.90
2018-09-11T14:16:16.586Z,99.90
2018-09-11T14:18:50.401Z,99.90
2018-09-11T14:21:25.147Z,99.90
2018-09-11T14:23:58.782Z,99.90
2018-09-11T14:26:32.244Z,99.90
2018-09-11T14:29:05.960Z,99.90
2018-09-11T14:31:39.088Z,99.90
2018-09-11T14:34:12.167Z,99.90
2018-09-11T14:36:45.190Z,99.90
2018-09-11T14:39:19.552Z,99.90
2018-09-11T14:41:53.351Z,99.90
2018-09-11T14:44:31.492Z,99.90
2018-09-11T14:47:04.535Z,99.90
2018-09-11T14:49:37.844Z,99.90
2018-09-11T14:52:11.841Z,99.60
2018-09-11T14:54:44.908Z,99.60
2018-09-11T14:57:21.100Z,98.90
2018-09-11T14:59:54.459Z,98.70
2018-09-11T15:02:27.705Z,98.50
2018-09-11T15:05:01.194Z,98.70
2018-09-11T15:07:35.102Z,98.70
2018-09-11T15:12:58.947Z,98.80
2018-09-11T15:15:32.210Z,98.10
2018-09-11T15:18:06.365Z,98.20
2018-09-11T15:20:39.574Z,98.20
2018-09-11T15:23:13.136Z,98.10
2018-09-11T15:25:46.559Z,97.70
2018-09-11T15:28:19.987Z,97.70
2018-09-11T15:30:54.067Z,97.80
2018-09-11T15:33:27.325Z,97.80
2018-09-11T15:36:00.507Z,97.90
2018-09-11T15:38:34.250Z,97.80
2018-09-11T15:41:08.008Z,97.80
2018-09-11T15:43:41.902Z,97.80
2018-09-11T15:46:16.019Z,98.00
2018-09-11T15:48:49.227Z,98.20
2018-09-11T15:51:22.371Z,98.20
2018-09-11T15:53:55.974Z,98.20
2018-09-11T15:56:29.097Z,98.00
2018-09-11T15:59:02.439Z,97.90
2018-09-11T16:01:35.390Z,98.30
2018-09-11T16:04:08.533Z,98.10
2018-09-11T16:12:28.154Z,98.10
2018-09-11T16:15:01.205Z,98.00
2018-09-11T16:17:34.372Z,97.80
2018-09-11T16:20:07.475Z,97.80
2018-09-11T16:22:40.874Z,97.60
2018-09-11T16:25:15.016Z,97.70
2018-09-11T16:27:50.513Z,97.80
2018-09-11T16:30:26.158Z,97.60
2018-09-11T16:33:00.416Z,97.00
2018-09-11T16:35:33.356Z,97.00
2018-09-11T16:38:06.332Z,96.50
2018-09-11T16:40:39.049Z,96.30
2018-09-11T16:43:12.778Z,96.00
2018-09-11T16:45:45.694Z,96.40
2018-09-11T16:48:18.924Z,95.60
2018-09-11T16:50:52.237Z,95.50
2018-09-11T16:53:28.164Z,95.00
2018-09-11T16:56:02.416Z,94.70
2018-09-11T16:58:35.504Z,94.60
2018-09-11T17:01:08.492Z,94.40
2018-09-11T17:03:41.400Z,94.60
2018-09-11T17:06:18.947Z,94.40
2018-09-11T17:08:51.982Z,94.20
2018-09-11T17:11:25.516Z,93.80
2018-09-11T17:13:58.539Z,93.50
2018-09-11T17:16:31.830Z,93.80
2018-09-11T17:19:05.269Z,94.00
2018-09-11T17:21:38.723Z,94.10
2018-09-11T17:24:11.947Z,94.20
2018-09-11T17:26:45.248Z,94.30
2018-09-11T17:29:18.192Z,94.00
2018-09-11T17:31:51.291Z,93.90
2018-09-11T17:34:25.314Z,94.20
2018-09-11T17:36:58.925Z,94.20
2018-09-11T17:39:32.328Z,94.00
2018-09-11T17:42:05.728Z,94.00
2018-09-11T17:44:39.027Z,93.90
2018-09-11T17:47:13.460Z,94.10
2018-09-11T17:49:47.147Z,94.10
2018-09-11T17:52:20.750Z,93.70
2018-09-11T17:54:54.569Z,93.50
2018-09-11T17:57:28.364Z,93.70
2018-09-11T18:00:02.655Z,93.80
2018-09-11T18:02:36.606Z,93.70
2018-09-11T18:05:10.377Z,93.50
2018-09-11T18:07:44.418Z,93.10
2018-09-11T18:10:18.079Z,93.20
2018-09-11T18:12:52.084Z,93.00
2018-09-11T18:15:27.954Z,92.70
2018-09-11T18:18:01.439Z,92.70
2018-09-11T18:20:35.048Z,92.80
2018-09-11T18:23:08.919Z,92.50
2018-09-11T18:25:42.800Z,91.90
2018-09-11T18:28:16.183Z,91.70
2018-09-11T18:30:51.130Z,91.70
2018-09-11T18:33:25.116Z,91.80
2018-09-11T18:35:59.234Z,91.60
2018-09-11T18:38:32.480Z,91.60
2018-09-11T18:41:05.905Z,90.40
2018-09-11T18:43:39.816Z,89.80
2018-09-11T18:46:13.623Z,90.00
2018-09-11T18:48:52.507Z,90.00
2018-09-11T18:51:25.778Z,90.00
2018-09-11T18:53:59.296Z,90.10
2018-09-11T18:56:33.176Z,89.10
2018-09-11T18:59:07.196Z,89.40
2018-09-11T19:01:40.973Z,88.80
2018-09-11T19:04:14.035Z,87.30
2018-09-11T19:06:51.043Z,86.40
2018-09-11T19:09:43.610Z,85.20
2018-09-11T19:12:17.674Z,84.00
2018-09-11T19:14:51.340Z,83.70
2018-09-11T19:17:24.577Z,83.80
2018-09-11T19:19:58.102Z,82.80
2018-09-11T19:22:31.083Z,81.70
2018-09-11T19:25:04.225Z,80.40
2018-09-11T19:27:37.338Z,79.60
2018-09-11T19:30:12.506Z,79.50
2018-09-11T19:35:30.484Z,78.40
2018-09-11T19:38:04.196Z,76.60
2018-09-11T19:40:39.050Z,74.80
2018-09-11T19:43:18.257Z,74.60
2018-09-11T19:45:51.737Z,74.30
2018-09-11T19:48:25.140Z,73.40
2018-09-11T19:50:58.948Z,73.30
2018-09-11T19:53:32.323Z,73.70
2018-09-11T19:56:05.553Z,73.00
2018-09-11T19:58:38.690Z,72.30
2018-09-11T20:01:12.381Z,69.60
2018-09-11T20:03:45.958Z,69.20
2018-09-11T20:06:18.909Z,70.20
2018-09-11T20:08:52.291Z,70.20
2018-09-11T20:11:25.512Z,70.00
2018-09-11T20:13:58.727Z,70.40
2018-09-11T20:16:32.810Z,70.30
2018-09-11T20:19:08.595Z,68.20
2018-09-11T20:21:42.777Z,68.00
2018-09-11T20:24:15.706Z,67.10
2018-09-11T20:26:48.901Z,66.30
2018-09-11T20:29:21.883Z,64.90
2018-09-11T20:31:55.351Z,64.30
2018-09-11T20:34:29.037Z,63.60
2018-09-11T20:37:02.541Z,63.70
2018-09-11T20:39:35.448Z,65.90
2018-09-11T20:42:08.870Z,65.20
2018-09-11T20:44:42.303Z,65.60
2018-09-11T20:47:15.667Z,64.80
2018-09-11T20:49:48.756Z,63.80
2018-09-11T20:52:22.163Z,63.90
2018-09-11T20:54:55.267Z,64.00
2018-09-11T20:57:33.529Z,63.80
2018-09-11T21:00:06.577Z,64.50
2018-09-11T21:02:39.816Z,65.30
2018-09-11T21:05:12.834Z,64.50
2018-09-11T21:07:46.418Z,64.40
2018-09-11T21:10:19.473Z,64.90
2018-09-11T21:12:52.590Z,64.20
2018-09-11T21:15:25.558Z,64.10
2018-09-11T21:17:58.827Z,64.40
2018-09-11T21:20:32.520Z,65.40
2018-09-11T21:23:07.277Z,65.70
2018-09-11T21:25:43.832Z,66.00
2018-09-11T21:28:17.837Z,64.70
2018-09-11T21:30:51.755Z,64.40
2018-09-11T21:33:26.839Z,64.50
2018-09-11T21:36:00.594Z,65.60
2018-09-11T21:38:33.930Z,66.90
2018-09-11T21:41:08.349Z,67.50
2018-09-11T21:43:41.681Z,68.60
2018-09-11T21:46:14.873Z,69.10
2018-09-11T21:48:48.101Z,69.90
2018-09-11T21:51:21.399Z,69.80
2018-09-11T21:53:54.327Z,70.30
2018-09-11T21:56:28.023Z,71.50
2018-09-11T21:59:00.928Z,71.70
2018-09-11T22:01:38.680Z,71.20
2018-09-11T22:04:12.259Z,72.20
2018-09-11T22:06:45.278Z,73.20
2018-09-11T22:09:18.607Z,72.50
2018-09-11T22:11:51.930Z,73.00
2018-09-11T22:14:25.560Z,73.50
2018-09-11T22:17:02.473Z,75.30
2018-09-11T22:19:35.594Z,76.90
2018-09-11T22:22:08.902Z,78.10
2018-09-11T22:24:41.967Z,79.10
2018-09-11T22:27:25.851Z,78.80
2018-09-11T22:29:59.599Z,80.00
2018-09-11T22:32:41.442Z,81.10
2018-09-11T22:35:20.881Z,82.00
2018-09-11T22:37:53.918Z,83.10
2018-09-11T22:40:27.409Z,84.30
2018-09-11T22:43:00.986Z,85.00
2018-09-11T22:45:34.570Z,85.60
2018-09-11T22:48:07.709Z,86.90
2018-09-11T22:50:41.058Z,88.70
2018-09-11T22:53:14.226Z,89.90
2018-09-11T22:55:47.385Z,90.60
2018-09-11T22:58:20.852Z,90.90
2018-09-11T23:00:54.024Z,91.10
2018-09-11T23:03:27.779Z,91.30
2018-09-11T23:06:00.852Z,91.70
2018-09-11T23:08:34.139Z,92.10
2018-09-11T23:13:59.852Z,93.10
2018-09-11T23:16:32.909Z,93.20
2018-09-11T23:19:06.066Z,93.80
2018-09-11T23:21:39.249Z,94.10
2018-09-11T23:24:12.262Z,94.10
2018-09-11T23:26:45.443Z,94.70
2018-09-11T23:29:18.486Z,95.20
2018-09-11T23:31:51.624Z,95.90
2018-09-11T23:34:24.573Z,96.00
2018-09-11T23:36:57.741Z,96.30
2018-09-11T23:39:30.702Z,96.40
2018-09-11T23:42:04.183Z,96.70
2018-09-11T23:44:38.719Z,97.00
2018-09-11T23:47:13.075Z,97.20
2018-09-11T23:49:46.109Z,97.50
2018-09-11T23:52:19.191Z,97.80
2018-09-11T23:54:52.183Z,98.00
2018-09-11T23:57:26.423Z,98.30
